sensor_id;sensor_type;location;lat;lon;timestamp;P1;durP1;ratioP1;P2;durP2;ratioP2
10100;SDS011;5090;51.258;4.436;2023-06-10T00:01:10;8.80;;;7.82;;
10100;SDS011;5090;51.258;4.436;2023-06-10T00:03:38;10.35;;;7.35;;
10100;SDS011;5090;51.258;4.436;2023-06-10T00:06:06;8.82;;;7.75;;
10100;SDS011;5090;51.258;4.436;2023-06-10T00:08:34;10.40;;;7.72;;
10100;SDS011;5090;51.258;4.436;2023-06-10T00:11:03;10.65;;;7.93;;
10100;SDS011;5090;51.258;4.436;2023-06-10T00:13:31;9.75;;;7.30;;
10100;SDS011;5090;51.258;4.436;2023-06-10T00:15:59;8.45;;;7.55;;
10100;SDS011;5090;51.258;4.436;2023-06-10T00:18:27;11.52;;;7.62;;
10100;SDS011;5090;51.258;4.436;2023-06-10T00:20:55;11.88;;;8.20;;
10100;SDS011;5090;51.258;4.436;2023-06-10T00:23:25;9.15;;;7.62;;
10100;SDS011;5090;51.258;4.436;2023-06-10T00:25:53;12.85;;;8.55;;
10100;SDS011;5090;51.258;4.436;2023-06-10T00:28:21;12.68;;;8.00;;
10100;SDS011;5090;51.258;4.436;2023-06-10T00:30:49;11.55;;;8.05;;
10100;SDS011;5090;51.258;4.436;2023-06-10T00:33:18;9.02;;;7.53;;
10100;SDS011;5090;51.258;4.436;2023-06-10T00:35:46;10.10;;;8.07;;
10100;SDS011;5090;51.258;4.436;2023-06-10T00:38:15;10.75;;;8.70;;
10100;SDS011;5090;51.258;4.436;2023-06-10T00:40:43;9.20;;;7.68;;
10100;SDS011;5090;51.258;4.436;2023-06-10T00:43:11;9.02;;;7.93;;
10100;SDS011;5090;51.258;4.436;2023-06-10T00:45:40;10.27;;;8.00;;
10100;SDS011;5090;51.258;4.436;2023-06-10T00:48:08;12.30;;;8.50;;
10100;SDS011;5090;51.258;4.436;2023-06-10T00:50:36;9.90;;;8.50;;
10100;SDS011;5090;51.258;4.436;2023-06-10T00:53:05;11.57;;;7.80;;
10100;SDS011;5090;51.258;4.436;2023-06-10T00:55:33;12.02;;;8.65;;
10100;SDS011;5090;51.258;4.436;2023-06-10T00:58:05;10.05;;;8.10;;
10100;SDS011;5090;51.258;4.436;2023-06-10T01:00:33;10.43;;;8.95;;
10100;SDS011;5090;51.258;4.436;2023-06-10T01:03:01;11.48;;;8.40;;
10100;SDS011;5090;51.258;4.436;2023-06-10T01:05:29;9.38;;;8.15;;
10100;SDS011;5090;51.258;4.436;2023-06-10T01:08:01;11.35;;;8.60;;
10100;SDS011;5090;51.258;4.436;2023-06-10T01:10:29;11.00;;;9.00;;
10100;SDS011;5090;51.258;4.436;2023-06-10T01:12:59;10.20;;;7.93;;
10100;SDS011;5090;51.258;4.436;2023-06-10T01:15:27;10.60;;;8.77;;
10100;SDS011;5090;51.258;4.436;2023-06-10T01:17:56;10.45;;;9.07;;
10100;SDS011;5090;51.258;4.436;2023-06-10T01:20:25;9.35;;;8.40;;
10100;SDS011;5090;51.258;4.436;2023-06-10T01:22:54;11.38;;;8.68;;
10100;SDS011;5090;51.258;4.436;2023-06-10T01:25:21;9.95;;;8.57;;
10100;SDS011;5090;51.258;4.436;2023-06-10T01:27:51;11.18;;;8.45;;
10100;SDS011;5090;51.258;4.436;2023-06-10T01:30:20;11.77;;;8.43;;
10100;SDS011;5090;51.258;4.436;2023-06-10T01:32:48;10.73;;;8.57;;
10100;SDS011;5090;51.258;4.436;2023-06-10T01:35:17;11.43;;;8.98;;
10100;SDS011;5090;51.258;4.436;2023-06-10T01:37:48;12.40;;;9.35;;
10100;SDS011;5090;51.258;4.436;2023-06-10T01:40:17;10.13;;;9.13;;
10100;SDS011;5090;51.258;4.436;2023-06-10T01:42:45;10.50;;;8.85;;
10100;SDS011;5090;51.258;4.436;2023-06-10T01:45:13;16.25;;;8.90;;
10100;SDS011;5090;51.258;4.436;2023-06-10T01:47:41;10.70;;;8.38;;
10100;SDS011;5090;51.258;4.436;2023-06-10T01:50:09;11.52;;;8.93;;
10100;SDS011;5090;51.258;4.436;2023-06-10T01:52:38;11.35;;;9.00;;
10100;SDS011;5090;51.258;4.436;2023-06-10T01:55:06;10.32;;;8.95;;
10100;SDS011;5090;51.258;4.436;2023-06-10T01:57:34;11.50;;;9.30;;
10100;SDS011;5090;51.258;4.436;2023-06-10T02:00:03;11.57;;;8.90;;
10100;SDS011;5090;51.258;4.436;2023-06-10T02:02:31;10.23;;;9.13;;
10100;SDS011;5090;51.258;4.436;2023-06-10T02:05:00;11.48;;;9.02;;
10100;SDS011;5090;51.258;4.436;2023-06-10T02:07:32;14.68;;;9.10;;
10100;SDS011;5090;51.258;4.436;2023-06-10T02:10:04;13.10;;;9.32;;
10100;SDS011;5090;51.258;4.436;2023-06-10T02:12:33;10.98;;;9.82;;
10100;SDS011;5090;51.258;4.436;2023-06-10T02:15:01;9.60;;;8.60;;
10100;SDS011;5090;51.258;4.436;2023-06-10T02:17:29;13.20;;;10.00;;
10100;SDS011;5090;51.258;4.436;2023-06-10T02:19:57;11.15;;;9.30;;
10100;SDS011;5090;51.258;4.436;2023-06-10T02:22:27;10.65;;;8.85;;
10100;SDS011;5090;51.258;4.436;2023-06-10T02:24:55;10.30;;;9.27;;
10100;SDS011;5090;51.258;4.436;2023-06-10T02:27:24;11.40;;;9.88;;
10100;SDS011;5090;51.258;4.436;2023-06-10T02:29:52;14.38;;;10.57;;
10100;SDS011;5090;51.258;4.436;2023-06-10T02:32:20;11.68;;;8.77;;
10100;SDS011;5090;51.258;4.436;2023-06-10T02:34:48;15.40;;;9.60;;
10100;SDS011;5090;51.258;4.436;2023-06-10T02:37:17;14.35;;;9.57;;
10100;SDS011;5090;51.258;4.436;2023-06-10T02:39:45;14.40;;;10.35;;
10100;SDS011;5090;51.258;4.436;2023-06-10T02:42:13;14.80;;;10.90;;
10100;SDS011;5090;51.258;4.436;2023-06-10T02:44:42;11.52;;;10.13;;
10100;SDS011;5090;51.258;4.436;2023-06-10T02:47:10;12.35;;;10.23;;
10100;SDS011;5090;51.258;4.436;2023-06-10T02:49:38;14.82;;;10.57;;
10100;SDS011;5090;51.258;4.436;2023-06-10T02:52:06;12.15;;;10.45;;
10100;SDS011;5090;51.258;4.436;2023-06-10T02:54:35;14.07;;;10.38;;
10100;SDS011;5090;51.258;4.436;2023-06-10T02:57:03;11.82;;;10.70;;
10100;SDS011;5090;51.258;4.436;2023-06-10T02:59:31;12.15;;;10.90;;
10100;SDS011;5090;51.258;4.436;2023-06-10T03:02:00;12.05;;;10.52;;
10100;SDS011;5090;51.258;4.436;2023-06-10T03:04:29;15.23;;;11.57;;
10100;SDS011;5090;51.258;4.436;2023-06-10T03:06:57;14.32;;;10.90;;
10100;SDS011;5090;51.258;4.436;2023-06-10T03:09:25;12.55;;;10.65;;
10100;SDS011;5090;51.258;4.436;2023-06-10T03:11:54;13.15;;;10.73;;
10100;SDS011;5090;51.258;4.436;2023-06-10T03:14:22;12.60;;;10.40;;
10100;SDS011;5090;51.258;4.436;2023-06-10T03:16:51;12.52;;;11.18;;
10100;SDS011;5090;51.258;4.436;2023-06-10T03:19:19;12.77;;;11.30;;
10100;SDS011;5090;51.258;4.436;2023-06-10T03:21:49;12.93;;;10.63;;
10100;SDS011;5090;51.258;4.436;2023-06-10T03:24:15;16.73;;;12.15;;
10100;SDS011;5090;51.258;4.436;2023-06-10T03:26:44;14.50;;;11.60;;
10100;SDS011;5090;51.258;4.436;2023-06-10T03:29:12;12.70;;;11.30;;
10100;SDS011;5090;51.258;4.436;2023-06-10T03:31:40;13.68;;;12.00;;
10100;SDS011;5090;51.258;4.436;2023-06-10T03:34:08;18.33;;;11.40;;
10100;SDS011;5090;51.258;4.436;2023-06-10T03:36:37;18.17;;;11.35;;
10100;SDS011;5090;51.258;4.436;2023-06-10T03:39:06;14.43;;;11.00;;
10100;SDS011;5090;51.258;4.436;2023-06-10T03:41:35;14.23;;;11.38;;
10100;SDS011;5090;51.258;4.436;2023-06-10T03:44:03;15.90;;;11.27;;
10100;SDS011;5090;51.258;4.436;2023-06-10T03:46:31;14.45;;;11.55;;
10100;SDS011;5090;51.258;4.436;2023-06-10T03:49:00;17.87;;;11.57;;
10100;SDS011;5090;51.258;4.436;2023-06-10T03:51:28;14.05;;;11.00;;
10100;SDS011;5090;51.258;4.436;2023-06-10T03:53:56;13.73;;;11.73;;
10100;SDS011;5090;51.258;4.436;2023-06-10T03:56:28;13.17;;;11.77;;
10100;SDS011;5090;51.258;4.436;2023-06-10T03:58:57;16.27;;;11.55;;
10100;SDS011;5090;51.258;4.436;2023-06-10T04:01:25;16.80;;;12.00;;
10100;SDS011;5090;51.258;4.436;2023-06-10T04:03:54;13.73;;;11.52;;
10100;SDS011;5090;51.258;4.436;2023-06-10T04:06:22;14.90;;;11.70;;
10100;SDS011;5090;51.258;4.436;2023-06-10T04:08:50;17.83;;;12.27;;
10100;SDS011;5090;51.258;4.436;2023-06-10T04:11:18;12.37;;;11.03;;
10100;SDS011;5090;51.258;4.436;2023-06-10T04:13:47;14.87;;;12.00;;
10100;SDS011;5090;51.258;4.436;2023-06-10T04:16:15;16.30;;;12.50;;
10100;SDS011;5090;51.258;4.436;2023-06-10T04:18:44;12.77;;;11.40;;
10100;SDS011;5090;51.258;4.436;2023-06-10T04:21:13;13.43;;;11.57;;
10100;SDS011;5090;51.258;4.436;2023-06-10T04:23:42;17.85;;;12.32;;
10100;SDS011;5090;51.258;4.436;2023-06-10T04:26:10;13.05;;;11.45;;
10100;SDS011;5090;51.258;4.436;2023-06-10T04:28:39;14.75;;;11.35;;
10100;SDS011;5090;51.258;4.436;2023-06-10T04:31:07;14.00;;;11.40;;
10100;SDS011;5090;51.258;4.436;2023-06-10T04:33:35;13.45;;;11.12;;
10100;SDS011;5090;51.258;4.436;2023-06-10T04:36:03;17.77;;;11.80;;
10100;SDS011;5090;51.258;4.436;2023-06-10T04:38:32;13.95;;;10.75;;
10100;SDS011;5090;51.258;4.436;2023-06-10T04:41:00;15.88;;;10.57;;
10100;SDS011;5090;51.258;4.436;2023-06-10T04:43:29;12.93;;;11.63;;
10100;SDS011;5090;51.258;4.436;2023-06-10T04:45:56;14.02;;;11.63;;
10100;SDS011;5090;51.258;4.436;2023-06-10T04:48:25;14.23;;;10.25;;
10100;SDS011;5090;51.258;4.436;2023-06-10T04:50:53;13.88;;;10.82;;
10100;SDS011;5090;51.258;4.436;2023-06-10T04:53:21;12.15;;;10.07;;
10100;SDS011;5090;51.258;4.436;2023-06-10T04:55:49;14.75;;;10.07;;
10100;SDS011;5090;51.258;4.436;2023-06-10T04:58:18;16.08;;;11.27;;
10100;SDS011;5090;51.258;4.436;2023-06-10T05:00:46;12.98;;;9.82;;
10100;SDS011;5090;51.258;4.436;2023-06-10T05:03:14;13.45;;;10.48;;
10100;SDS011;5090;51.258;4.436;2023-06-10T05:05:43;11.12;;;9.93;;
10100;SDS011;5090;51.258;4.436;2023-06-10T05:08:11;11.40;;;10.30;;
10100;SDS011;5090;51.258;4.436;2023-06-10T05:10:40;12.73;;;10.20;;
10100;SDS011;5090;51.258;4.436;2023-06-10T05:13:08;14.07;;;10.88;;
10100;SDS011;5090;51.258;4.436;2023-06-10T05:15:36;11.90;;;9.65;;
10100;SDS011;5090;51.258;4.436;2023-06-10T05:18:04;16.40;;;10.88;;
10100;SDS011;5090;51.258;4.436;2023-06-10T05:20:32;12.80;;;10.23;;
10100;SDS011;5090;51.258;4.436;2023-06-10T05:23:01;12.27;;;10.88;;
10100;SDS011;5090;51.258;4.436;2023-06-10T05:25:30;12.37;;;10.20;;
10100;SDS011;5090;51.258;4.436;2023-06-10T05:27:58;11.65;;;10.48;;
10100;SDS011;5090;51.258;4.436;2023-06-10T05:30:27;15.98;;;10.38;;
10100;SDS011;5090;51.258;4.436;2023-06-10T05:32:55;15.85;;;10.45;;
10100;SDS011;5090;51.258;4.436;2023-06-10T05:35:24;14.02;;;9.90;;
10100;SDS011;5090;51.258;4.436;2023-06-10T05:37:52;11.60;;;9.77;;
10100;SDS011;5090;51.258;4.436;2023-06-10T05:40:20;11.05;;;9.77;;
10100;SDS011;5090;51.258;4.436;2023-06-10T05:42:48;13.52;;;10.43;;
10100;SDS011;5090;51.258;4.436;2023-06-10T05:45:20;11.18;;;9.23;;
10100;SDS011;5090;51.258;4.436;2023-06-10T05:47:48;11.05;;;9.88;;
10100;SDS011;5090;51.258;4.436;2023-06-10T05:50:16;11.35;;;9.68;;
10100;SDS011;5090;51.258;4.436;2023-06-10T05:52:45;12.55;;;9.65;;
10100;SDS011;5090;51.258;4.436;2023-06-10T05:55:13;12.57;;;9.27;;
10100;SDS011;5090;51.258;4.436;2023-06-10T05:57:45;17.55;;;9.73;;
10100;SDS011;5090;51.258;4.436;2023-06-10T06:00:13;10.15;;;9.07;;
10100;SDS011;5090;51.258;4.436;2023-06-10T06:02:41;13.55;;;8.82;;
10100;SDS011;5090;51.258;4.436;2023-06-10T06:05:10;14.02;;;9.55;;
10100;SDS011;5090;51.258;4.436;2023-06-10T06:07:38;12.20;;;9.10;;
10100;SDS011;5090;51.258;4.436;2023-06-10T06:10:06;13.25;;;9.52;;
10100;SDS011;5090;51.258;4.436;2023-06-10T06:12:35;10.18;;;9.18;;
10100;SDS011;5090;51.258;4.436;2023-06-10T06:15:04;9.98;;;8.55;;
10100;SDS011;5090;51.258;4.436;2023-06-10T06:17:32;9.35;;;8.43;;
10100;SDS011;5090;51.258;4.436;2023-06-10T06:20:01;9.50;;;7.82;;
10100;SDS011;5090;51.258;4.436;2023-06-10T06:22:29;12.10;;;8.32;;
10100;SDS011;5090;51.258;4.436;2023-06-10T06:24:57;13.10;;;8.13;;
10100;SDS011;5090;51.258;4.436;2023-06-10T06:27:25;14.77;;;8.27;;
10100;SDS011;5090;51.258;4.436;2023-06-10T06:29:57;9.18;;;8.27;;
10100;SDS011;5090;51.258;4.436;2023-06-10T06:32:25;11.57;;;7.82;;
10100;SDS011;5090;51.258;4.436;2023-06-10T06:34:53;8.70;;;7.55;;
10100;SDS011;5090;51.258;4.436;2023-06-10T06:37:22;12.88;;;7.72;;
10100;SDS011;5090;51.258;4.436;2023-06-10T06:39:51;8.85;;;7.22;;
10100;SDS011;5090;51.258;4.436;2023-06-10T06:42:20;8.43;;;6.57;;
10100;SDS011;5090;51.258;4.436;2023-06-10T06:44:48;11.90;;;7.43;;
10100;SDS011;5090;51.258;4.436;2023-06-10T06:47:16;9.88;;;7.20;;
10100;SDS011;5090;51.258;4.436;2023-06-10T06:49:46;12.82;;;7.30;;
10100;SDS011;5090;51.258;4.436;2023-06-10T06:52:14;8.50;;;7.37;;
10100;SDS011;5090;51.258;4.436;2023-06-10T06:54:42;9.80;;;7.45;;
10100;SDS011;5090;51.258;4.436;2023-06-10T06:57:10;8.23;;;7.30;;
10100;SDS011;5090;51.258;4.436;2023-06-10T06:59:38;9.00;;;6.82;;
10100;SDS011;5090;51.258;4.436;2023-06-10T07:02:06;7.55;;;6.70;;
10100;SDS011;5090;51.258;4.436;2023-06-10T07:04:35;8.40;;;6.65;;
10100;SDS011;5090;51.258;4.436;2023-06-10T07:07:04;9.82;;;7.00;;
10100;SDS011;5090;51.258;4.436;2023-06-10T07:09:31;10.50;;;7.10;;
10100;SDS011;5090;51.258;4.436;2023-06-10T07:11:59;10.55;;;6.87;;
10100;SDS011;5090;51.258;4.436;2023-06-10T07:14:28;10.18;;;7.07;;
10100;SDS011;5090;51.258;4.436;2023-06-10T07:16:56;7.93;;;6.68;;
10100;SDS011;5090;51.258;4.436;2023-06-10T07:19:24;10.82;;;6.37;;
10100;SDS011;5090;51.258;4.436;2023-06-10T07:21:53;9.82;;;7.40;;
10100;SDS011;5090;51.258;4.436;2023-06-10T07:24:21;9.35;;;7.35;;
10100;SDS011;5090;51.258;4.436;2023-06-10T07:26:49;13.02;;;7.53;;
10100;SDS011;5090;51.258;4.436;2023-06-10T07:29:17;7.55;;;6.50;;
10100;SDS011;5090;51.258;4.436;2023-06-10T07:31:49;10.23;;;6.45;;
10100;SDS011;5090;51.258;4.436;2023-06-10T07:34:18;9.25;;;7.22;;
10100;SDS011;5090;51.258;4.436;2023-06-10T07:36:46;7.47;;;6.65;;
10100;SDS011;5090;51.258;4.436;2023-06-10T07:39:15;11.70;;;6.70;;
10100;SDS011;5090;51.258;4.436;2023-06-10T07:41:43;8.40;;;6.85;;
10100;SDS011;5090;51.258;4.436;2023-06-10T07:44:12;8.38;;;6.65;;
10100;SDS011;5090;51.258;4.436;2023-06-10T07:46:40;7.57;;;6.87;;
10100;SDS011;5090;51.258;4.436;2023-06-10T07:49:09;10.15;;;7.43;;
10100;SDS011;5090;51.258;4.436;2023-06-10T07:51:37;7.80;;;6.57;;
10100;SDS011;5090;51.258;4.436;2023-06-10T07:54:05;10.73;;;6.78;;
10100;SDS011;5090;51.258;4.436;2023-06-10T07:56:34;9.20;;;7.05;;
10100;SDS011;5090;51.258;4.436;2023-06-10T07:59:02;10.50;;;6.30;;
10100;SDS011;5090;51.258;4.436;2023-06-10T08:01:31;8.13;;;6.60;;
10100;SDS011;5090;51.258;4.436;2023-06-10T08:04:01;7.47;;;6.35;;
10100;SDS011;5090;51.258;4.436;2023-06-10T08:06:29;8.90;;;6.40;;
10100;SDS011;5090;51.258;4.436;2023-06-10T08:08:57;9.32;;;6.90;;
10100;SDS011;5090;51.258;4.436;2023-06-10T08:11:26;11.45;;;6.85;;
10100;SDS011;5090;51.258;4.436;2023-06-10T08:13:54;8.98;;;6.97;;
10100;SDS011;5090;51.258;4.436;2023-06-10T08:16:22;11.50;;;6.45;;
10100;SDS011;5090;51.258;4.436;2023-06-10T08:18:51;8.63;;;6.75;;
10100;SDS011;5090;51.258;4.436;2023-06-10T08:21:19;11.48;;;6.90;;
10100;SDS011;5090;51.258;4.436;2023-06-10T08:23:49;8.30;;;6.32;;
10100;SDS011;5090;51.258;4.436;2023-06-10T08:26:16;8.50;;;6.50;;
10100;SDS011;5090;51.258;4.436;2023-06-10T08:28:45;14.75;;;6.87;;
10100;SDS011;5090;51.258;4.436;2023-06-10T08:31:13;9.65;;;6.70;;
10100;SDS011;5090;51.258;4.436;2023-06-10T08:33:42;10.27;;;6.93;;
10100;SDS011;5090;51.258;4.436;2023-06-10T08:36:10;9.55;;;6.18;;
10100;SDS011;5090;51.258;4.436;2023-06-10T08:38:38;7.87;;;6.53;;
10100;SDS011;5090;51.258;4.436;2023-06-10T08:41:06;9.00;;;6.75;;
10100;SDS011;5090;51.258;4.436;2023-06-10T08:43:39;10.45;;;6.50;;
10100;SDS011;5090;51.258;4.436;2023-06-10T08:46:05;9.02;;;6.07;;
10100;SDS011;5090;51.258;4.436;2023-06-10T08:48:34;12.18;;;7.03;;
10100;SDS011;5090;51.258;4.436;2023-06-10T08:51:03;8.38;;;6.60;;
10100;SDS011;5090;51.258;4.436;2023-06-10T08:53:30;8.25;;;6.50;;
10100;SDS011;5090;51.258;4.436;2023-06-10T08:55:58;6.75;;;5.80;;
10100;SDS011;5090;51.258;4.436;2023-06-10T08:58:32;6.95;;;6.35;;
10100;SDS011;5090;51.258;4.436;2023-06-10T09:00:59;6.75;;;6.07;;
10100;SDS011;5090;51.258;4.436;2023-06-10T09:03:28;6.15;;;5.53;;
10100;SDS011;5090;51.258;4.436;2023-06-10T09:05:56;8.20;;;6.07;;
10100;SDS011;5090;51.258;4.436;2023-06-10T09:08:25;10.18;;;5.22;;
10100;SDS011;5090;51.258;4.436;2023-06-10T09:10:53;8.02;;;5.35;;
10100;SDS011;5090;51.258;4.436;2023-06-10T09:13:21;9.75;;;5.72;;
10100;SDS011;5090;51.258;4.436;2023-06-10T09:15:49;9.85;;;5.50;;
10100;SDS011;5090;51.258;4.436;2023-06-10T09:18:18;7.30;;;5.75;;
10100;SDS011;5090;51.258;4.436;2023-06-10T09:20:46;10.85;;;5.78;;
10100;SDS011;5090;51.258;4.436;2023-06-10T09:23:15;9.93;;;5.82;;
10100;SDS011;5090;51.258;4.436;2023-06-10T09:25:43;6.62;;;5.93;;
10100;SDS011;5090;51.258;4.436;2023-06-10T09:28:13;9.63;;;5.95;;
10100;SDS011;5090;51.258;4.436;2023-06-10T09:30:42;10.52;;;5.95;;
10100;SDS011;5090;51.258;4.436;2023-06-10T09:33:18;6.37;;;5.78;;
10100;SDS011;5090;51.258;4.436;2023-06-10T09:35:51;6.85;;;5.15;;
10100;SDS011;5090;51.258;4.436;2023-06-10T09:38:20;8.95;;;5.87;;
10100;SDS011;5090;51.258;4.436;2023-06-10T09:40:49;7.37;;;6.00;;
10100;SDS011;5090;51.258;4.436;2023-06-10T09:43:18;6.85;;;5.72;;
10100;SDS011;5090;51.258;4.436;2023-06-10T09:45:50;7.37;;;5.62;;
10100;SDS011;5090;51.258;4.436;2023-06-10T09:48:18;7.93;;;5.60;;
10100;SDS011;5090;51.258;4.436;2023-06-10T09:50:46;7.20;;;6.50;;
10100;SDS011;5090;51.258;4.436;2023-06-10T09:53:17;6.80;;;6.10;;
10100;SDS011;5090;51.258;4.436;2023-06-10T09:55:47;9.70;;;6.32;;
10100;SDS011;5090;51.258;4.436;2023-06-10T09:58:17;9.07;;;5.87;;
10100;SDS011;5090;51.258;4.436;2023-06-10T10:00:52;7.65;;;5.70;;
10100;SDS011;5090;51.258;4.436;2023-06-10T10:03:21;7.55;;;6.18;;
10100;SDS011;5090;51.258;4.436;2023-06-10T10:05:44;9.88;;;6.32;;
10100;SDS011;5090;51.258;4.436;2023-06-10T10:08:13;6.70;;;6.00;;
10100;SDS011;5090;51.258;4.436;2023-06-10T10:10:46;12.48;;;7.10;;
10100;SDS011;5090;51.258;4.436;2023-06-10T10:13:14;11.57;;;5.72;;
10100;SDS011;5090;51.258;4.436;2023-06-10T10:15:51;8.77;;;5.75;;
10100;SDS011;5090;51.258;4.436;2023-06-10T10:18:26;11.25;;;6.22;;
10100;SDS011;5090;51.258;4.436;2023-06-10T10:20:56;8.40;;;5.70;;
10100;SDS011;5090;51.258;4.436;2023-06-10T10:24:03;16.00;;;6.05;;
10100;SDS011;5090;51.258;4.436;2023-06-10T10:26:22;7.45;;;5.62;;
10100;SDS011;5090;51.258;4.436;2023-06-10T10:29:03;6.25;;;5.65;;
10100;SDS011;5090;51.258;4.436;2023-06-10T10:31:24;7.18;;;5.60;;
10100;SDS011;5090;51.258;4.436;2023-06-10T10:33:55;7.82;;;6.10;;
10100;SDS011;5090;51.258;4.436;2023-06-10T10:36:28;7.57;;;5.65;;
10100;SDS011;5090;51.258;4.436;2023-06-10T10:38:56;7.85;;;5.25;;
10100;SDS011;5090;51.258;4.436;2023-06-10T10:41:24;6.35;;;5.18;;
10100;SDS011;5090;51.258;4.436;2023-06-10T10:43:52;10.43;;;6.32;;
10100;SDS011;5090;51.258;4.436;2023-06-10T10:46:21;8.45;;;6.22;;
10100;SDS011;5090;51.258;4.436;2023-06-10T10:48:53;7.62;;;5.60;;
10100;SDS011;5090;51.258;4.436;2023-06-10T10:51:22;7.82;;;5.37;;
10100;SDS011;5090;51.258;4.436;2023-06-10T10:56:26;7.35;;;5.70;;
10100;SDS011;5090;51.258;4.436;2023-06-10T10:59:05;12.18;;;6.12;;
10100;SDS011;5090;51.258;4.436;2023-06-10T11:04:12;6.65;;;5.35;;
10100;SDS011;5090;51.258;4.436;2023-06-10T11:06:40;7.72;;;5.45;;
10100;SDS011;5090;51.258;4.436;2023-06-10T11:11:49;6.95;;;5.65;;
10100;SDS011;5090;51.258;4.436;2023-06-10T11:14:26;7.07;;;5.72;;
10100;SDS011;5090;51.258;4.436;2023-06-10T11:16:46;9.40;;;5.53;;
10100;SDS011;5090;51.258;4.436;2023-06-10T11:19:50;7.05;;;5.65;;
10100;SDS011;5090;51.258;4.436;2023-06-10T11:22:05;7.35;;;5.75;;
10100;SDS011;5090;51.258;4.436;2023-06-10T11:24:34;8.23;;;6.03;;
10100;SDS011;5090;51.258;4.436;2023-06-10T11:32:58;8.93;;;6.28;;
10100;SDS011;5090;51.258;4.436;2023-06-10T11:35:28;6.05;;;5.45;;
10100;SDS011;5090;51.258;4.436;2023-06-10T11:37:59;6.62;;;5.50;;
10100;SDS011;5090;51.258;4.436;2023-06-10T11:40:30;6.82;;;5.90;;
10100;SDS011;5090;51.258;4.436;2023-06-10T11:42:59;6.68;;;6.00;;
10100;SDS011;5090;51.258;4.436;2023-06-10T11:48:15;8.13;;;6.20;;
10100;SDS011;5090;51.258;4.436;2023-06-10T11:50:48;10.15;;;5.93;;
10100;SDS011;5090;51.258;4.436;2023-06-10T11:53:17;11.23;;;5.82;;
10100;SDS011;5090;51.258;4.436;2023-06-10T11:55:50;7.85;;;5.72;;
10100;SDS011;5090;51.258;4.436;2023-06-10T11:58:19;9.52;;;5.97;;
10100;SDS011;5090;51.258;4.436;2023-06-10T12:00:50;7.37;;;5.97;;
10100;SDS011;5090;51.258;4.436;2023-06-10T12:03:17;9.27;;;6.20;;
10100;SDS011;5090;51.258;4.436;2023-06-10T12:08:20;7.55;;;6.20;;
10100;SDS011;5090;51.258;4.436;2023-06-10T12:10:49;11.60;;;6.12;;
10100;SDS011;5090;51.258;4.436;2023-06-10T12:13:18;6.35;;;5.75;;
10100;SDS011;5090;51.258;4.436;2023-06-10T12:15:46;11.32;;;6.10;;
10100;SDS011;5090;51.258;4.436;2023-06-10T12:18:16;6.87;;;6.22;;
10100;SDS011;5090;51.258;4.436;2023-06-10T12:20:45;7.78;;;6.10;;
10100;SDS011;5090;51.258;4.436;2023-06-10T12:23:14;10.55;;;6.72;;
10100;SDS011;5090;51.258;4.436;2023-06-10T12:28:20;9.80;;;6.32;;
10100;SDS011;5090;51.258;4.436;2023-06-10T12:30:48;7.10;;;6.43;;
10100;SDS011;5090;51.258;4.436;2023-06-10T12:33:17;7.72;;;5.82;;
10100;SDS011;5090;51.258;4.436;2023-06-10T12:35:49;9.05;;;6.03;;
10100;SDS011;5090;51.258;4.436;2023-06-10T12:38:36;9.00;;;6.30;;
10100;SDS011;5090;51.258;4.436;2023-06-10T12:44:09;6.78;;;5.80;;
10100;SDS011;5090;51.258;4.436;2023-06-10T12:46:38;7.90;;;5.57;;
10100;SDS011;5090;51.258;4.436;2023-06-10T12:49:07;9.20;;;6.43;;
10100;SDS011;5090;51.258;4.436;2023-06-10T12:51:35;7.18;;;5.95;;
10100;SDS011;5090;51.258;4.436;2023-06-10T12:54:07;8.05;;;6.03;;
10100;SDS011;5090;51.258;4.436;2023-06-10T12:56:37;7.03;;;6.15;;
10100;SDS011;5090;51.258;4.436;2023-06-10T12:59:05;10.63;;;6.28;;
10100;SDS011;5090;51.258;4.436;2023-06-10T13:01:34;6.97;;;6.15;;
10100;SDS011;5090;51.258;4.436;2023-06-10T13:04:04;8.68;;;6.12;;
10100;SDS011;5090;51.258;4.436;2023-06-10T13:06:31;8.98;;;6.57;;
10100;SDS011;5090;51.258;4.436;2023-06-10T13:08:59;10.15;;;6.62;;
10100;SDS011;5090;51.258;4.436;2023-06-10T13:11:28;7.95;;;5.72;;
10100;SDS011;5090;51.258;4.436;2023-06-10T13:13:56;6.57;;;5.97;;
10100;SDS011;5090;51.258;4.436;2023-06-10T13:16:24;8.55;;;6.47;;
10100;SDS011;5090;51.258;4.436;2023-06-10T13:18:53;6.95;;;6.00;;
10100;SDS011;5090;51.258;4.436;2023-06-10T13:21:21;7.87;;;6.15;;
10100;SDS011;5090;51.258;4.436;2023-06-10T13:23:53;8.57;;;5.87;;
10100;SDS011;5090;51.258;4.436;2023-06-10T13:26:22;8.98;;;5.85;;
10100;SDS011;5090;51.258;4.436;2023-06-10T13:28:50;7.47;;;5.97;;
10100;SDS011;5090;51.258;4.436;2023-06-10T13:31:18;10.85;;;5.87;;
10100;SDS011;5090;51.258;4.436;2023-06-10T13:33:46;9.93;;;5.47;;
10100;SDS011;5090;51.258;4.436;2023-06-10T13:36:15;7.55;;;6.18;;
10100;SDS011;5090;51.258;4.436;2023-06-10T13:38:43;6.70;;;6.00;;
10100;SDS011;5090;51.258;4.436;2023-06-10T13:41:12;8.57;;;5.72;;
10100;SDS011;5090;51.258;4.436;2023-06-10T13:43:40;8.50;;;5.87;;
10100;SDS011;5090;51.258;4.436;2023-06-10T13:46:09;7.95;;;6.37;;
10100;SDS011;5090;51.258;4.436;2023-06-10T13:48:37;8.07;;;5.85;;
10100;SDS011;5090;51.258;4.436;2023-06-10T13:51:06;6.12;;;5.53;;
10100;SDS011;5090;51.258;4.436;2023-06-10T13:53:34;10.05;;;5.40;;
10100;SDS011;5090;51.258;4.436;2023-06-10T13:56:02;6.40;;;5.50;;
10100;SDS011;5090;51.258;4.436;2023-06-10T13:58:31;6.57;;;5.65;;
10100;SDS011;5090;51.258;4.436;2023-06-10T14:00:59;6.32;;;5.72;;
10100;SDS011;5090;51.258;4.436;2023-06-10T14:03:28;6.15;;;5.15;;
10100;SDS011;5090;51.258;4.436;2023-06-10T14:05:56;6.37;;;5.05;;
10100;SDS011;5090;51.258;4.436;2023-06-10T14:08:24;7.62;;;6.60;;
10100;SDS011;5090;51.258;4.436;2023-06-10T14:10:52;6.93;;;6.22;;
10100;SDS011;5090;51.258;4.436;2023-06-10T14:13:20;9.15;;;6.05;;
10100;SDS011;5090;51.258;4.436;2023-06-10T14:15:49;10.60;;;5.45;;
10100;SDS011;5090;51.258;4.436;2023-06-10T14:18:17;8.02;;;6.12;;
10100;SDS011;5090;51.258;4.436;2023-06-10T14:20:45;6.70;;;6.03;;
10100;SDS011;5090;51.258;4.436;2023-06-10T14:23:13;7.68;;;5.97;;
10100;SDS011;5090;51.258;4.436;2023-06-10T14:25:42;9.82;;;5.97;;
10100;SDS011;5090;51.258;4.436;2023-06-10T14:28:10;8.15;;;5.97;;
10100;SDS011;5090;51.258;4.436;2023-06-10T14:30:38;5.78;;;5.28;;
10100;SDS011;5090;51.258;4.436;2023-06-10T14:33:06;7.82;;;5.90;;
10100;SDS011;5090;51.258;4.436;2023-06-10T14:35:34;16.02;;;6.00;;
10100;SDS011;5090;51.258;4.436;2023-06-10T14:38:03;6.60;;;6.00;;
10100;SDS011;5090;51.258;4.436;2023-06-10T14:40:31;7.80;;;5.68;;
10100;SDS011;5090;51.258;4.436;2023-06-10T14:42:59;7.68;;;6.87;;
10100;SDS011;5090;51.258;4.436;2023-06-10T14:45:31;6.72;;;5.87;;
10100;SDS011;5090;51.258;4.436;2023-06-10T14:48:00;7.90;;;5.57;;
10100;SDS011;5090;51.258;4.436;2023-06-10T14:50:29;7.30;;;5.75;;
10100;SDS011;5090;51.258;4.436;2023-06-10T14:52:57;6.20;;;5.60;;
10100;SDS011;5090;51.258;4.436;2023-06-10T14:55:25;6.97;;;5.43;;
10100;SDS011;5090;51.258;4.436;2023-06-10T14:57:53;10.57;;;6.12;;
10100;SDS011;5090;51.258;4.436;2023-06-10T15:00:22;8.30;;;5.78;;
10100;SDS011;5090;51.258;4.436;2023-06-10T15:02:50;6.20;;;5.30;;
10100;SDS011;5090;51.258;4.436;2023-06-10T15:05:18;8.93;;;5.82;;
10100;SDS011;5090;51.258;4.436;2023-06-10T15:07:51;7.25;;;5.97;;
10100;SDS011;5090;51.258;4.436;2023-06-10T15:10:19;6.80;;;5.60;;
10100;SDS011;5090;51.258;4.436;2023-06-10T15:12:48;9.40;;;5.90;;
10100;SDS011;5090;51.258;4.436;2023-06-10T15:15:17;8.25;;;6.70;;
10100;SDS011;5090;51.258;4.436;2023-06-10T15:17:49;8.40;;;5.95;;
10100;SDS011;5090;51.258;4.436;2023-06-10T15:20:19;6.70;;;5.82;;
10100;SDS011;5090;51.258;4.436;2023-06-10T15:22:47;8.32;;;6.00;;
10100;SDS011;5090;51.258;4.436;2023-06-10T15:25:20;7.65;;;5.62;;
10100;SDS011;5090;51.258;4.436;2023-06-10T15:27:48;6.32;;;5.65;;